Time;durP1;ratioP1;P1;durP2;ratioP2;P2;SDS_P1;SDS_P2;PMS_P1;PMS_P2;Temp;Humidity;BMP_temperature;BMP_pressure;BME280_temperature;BME280_humidity;BME280_pressure;Samples;Min_cycle;Max_cycle;Signal;HPM_P1;HPM_P2
2021/08/02 00:01:28;;;;;;;6.87;3.37;;;15.70;99.90;;;;;;5024800;28;20456;-69
2021/08/02 00:04:00;;;;;;;5.27;3.00;;;15.80;99.90;;;;;;5030469;28;20449;-69
2021/08/02 00:06:37;;;;;;;4.70;3.43;;;15.70;99.90;;;;;;5031925;28;20491;-68
2021/08/02 00:09:05;;;;;;;4.87;3.10;;;15.70;99.90;;;;;;5032048;28;20822;-67
2021/08/02 00:11:36;;;;;;;7.37;3.60;;;15.70;99.90;;;;;;5032047;28;20492;-68
2021/08/02 00:14:07;;;;;;;6.40;3.70;;;15.70;99.90;;;;;;5031670;28;20967;-69
2021/08/02 00:16:35;;;;;;;4.70;3.70;;;15.60;99.90;;;;;;5031038;28;20441;-69
2021/08/02 00:19:02;;;;;;;7.17;3.67;;;15.60;99.90;;;;;;5031739;28;20469;-69
2021/08/02 00:21:30;;;;;;;5.90;3.47;;;15.70;99.90;;;;;;5031528;28;20437;-68
2021/08/02 00:23:58;;;;;;;3.90;3.27;;;15.70;99.90;;;;;;5031631;28;20455;-68
2021/08/02 00:26:25;;;;;;;3.90;3.40;;;15.70;99.90;;;;;;5031593;28;20457;-69
2021/08/02 00:28:52;;;;;;;5.10;3.60;;;15.70;99.90;;;;;;5032043;28;20483;-69
2021/08/02 00:31:21;;;;;;;5.93;2.70;;;15.70;99.90;;;;;;5036123;28;20451;-68
2021/08/02 00:33:48;;;;;;;4.90;3.80;;;15.70;99.90;;;;;;5037703;28;20441;-69
2021/08/02 00:36:22;;;;;;;4.80;3.60;;;15.70;99.90;;;;;;5035091;28;20522;-69
2021/08/02 00:38:56;;;;;;;5.60;3.37;;;15.70;99.90;;;;;;5031110;28;20480;-69
2021/08/02 00:42:14;;;;;;;3.70;3.13;;;15.60;99.90;;;;;;5030818;28;20536;-69
2021/08/02 00:45:05;;;;;;;5.10;3.30;;;15.60;99.90;;;;;;5031273;28;20449;-68
2021/08/02 00:47:36;;;;;;;3.97;3.10;;;15.50;99.90;;;;;;5031280;28;20579;-67
2021/08/02 00:50:06;;;;;;;8.00;5.20;;;15.50;99.90;;;;;;5030984;28;20469;-68
2021/08/02 00:52:35;;;;;;;10.70;5.37;;;15.50;99.90;;;;;;5031444;28;20536;-68
2021/08/02 00:55:04;;;;;;;7.13;5.57;;;15.50;99.90;;;;;;5030949;28;20453;-68
2021/08/02 00:57:36;;;;;;;8.27;6.43;;;15.50;99.90;;;;;;5030965;28;20923;-68
2021/08/02 01:00:08;;;;;;;8.37;6.00;;;15.40;99.90;;;;;;5030673;28;20460;-68
2021/08/02 01:02:38;;;;;;;12.33;7.87;;;15.40;99.90;;;;;;5031189;28;20451;-68
2021/08/02 01:05:09;;;;;;;8.73;7.70;;;15.40;99.90;;;;;;5030920;28;20457;-69
2021/08/02 01:07:42;;;;;;;11.37;9.03;;;15.40;99.90;;;;;;5031002;28;20870;-68
2021/08/02 01:10:11;;;;;;;9.90;8.90;;;15.30;99.90;;;;;;5030282;28;20469;-68
2021/08/02 01:12:42;;;;;;;9.90;7.97;;;15.30;99.90;;;;;;5031094;28;20899;-68
2021/08/02 01:15:10;;;;;;;7.60;6.87;;;15.30;99.90;;;;;;5030669;28;20540;-68
2021/08/02 01:17:39;;;;;;;8.23;6.43;;;15.30;99.90;;;;;;5030749;28;20467;-68
2021/08/02 01:20:08;;;;;;;13.17;6.70;;;15.30;99.90;;;;;;5030029;28;20552;-68
2021/08/02 01:22:39;;;;;;;9.07;6.33;;;15.20;99.90;;;;;;5030007;28;20448;-68
2021/08/02 01:25:54;;;;;;;8.67;6.00;;;15.20;99.90;;;;;;5031077;28;20552;-68
2021/08/02 01:28:59;;;;;;;7.30;6.47;;;15.10;99.90;;;;;;5030230;28;20870;-69
2021/08/02 01:31:25;;;;;;;5.83;4.37;;;15.10;99.90;;;;;;5030675;28;20451;-68
2021/08/02 01:33:52;;;;;;;5.70;4.10;;;15.10;99.90;;;;;;5030181;28;20463;-68
2021/08/02 01:36:19;;;;;;;5.37;4.30;;;15.10;99.90;;;;;;5030215;28;20455;-68
2021/08/02 01:38:48;;;;;;;6.03;3.67;;;15.10;99.90;;;;;;5030594;28;20484;-69
2021/08/02 01:41:15;;;;;;;5.20;3.70;;;15.00;99.90;;;;;;5030432;28;20932;-68
2021/08/02 01:43:42;;;;;;;4.43;3.83;;;15.10;99.90;;;;;;5030281;28;20451;-69
2021/08/02 01:46:17;;;;;;;7.97;4.57;;;15.00;99.90;;;;;;5030398;28;21056;-70
2021/08/02 01:48:53;;;;;;;4.70;3.73;;;15.10;99.90;;;;;;5030260;28;21085;-69
2021/08/02 01:51:24;;;;;;;7.07;4.73;;;15.10;99.90;;;;;;5030519;28;20459;-69
2021/08/02 01:54:00;;;;;;;6.93;4.07;;;15.10;99.90;;;;;;5030413;28;20943;-69
2021/08/02 01:56:33;;;;;;;5.17;4.40;;;15.10;99.90;;;;;;5030532;28;20444;-69
2021/08/02 01:59:07;;;;;;;7.20;4.60;;;15.10;99.90;;;;;;5029671;28;20998;-69
2021/08/02 02:01:36;;;;;;;6.17;3.77;;;15.10;99.90;;;;;;5030123;28;20449;-68
2021/08/02 02:04:05;;;;;;;4.83;4.00;;;15.10;99.90;;;;;;5030292;28;20555;-66
2021/08/02 02:06:38;;;;;;;7.03;3.40;;;15.10;99.90;;;;;;5029957;28;20456;-68
2021/08/02 02:09:09;;;;;;;7.97;3.53;;;15.10;99.90;;;;;;5029966;28;20492;-68
2021/08/02 02:11:41;;;;;;;5.00;3.60;;;15.10;99.90;;;;;;5030017;28;20471;-68
2021/08/02 02:14:10;;;;;;;4.90;3.30;;;15.10;99.90;;;;;;5029977;28;20916;-69
2021/08/02 02:16:39;;;;;;;4.40;3.53;;;15.20;99.90;;;;;;5029588;28;20455;-69
2021/08/02 02:19:07;;;;;;;4.80;3.23;;;15.20;99.90;;;;;;5030896;28;20469;-67
2021/08/02 02:21:35;;;;;;;4.90;3.57;;;15.10;99.90;;;;;;5033884;28;20831;-68
2021/08/02 02:24:03;;;;;;;4.00;2.97;;;15.20;99.90;;;;;;5033919;28;20487;-69
2021/08/02 02:26:34;;;;;;;4.40;3.20;;;15.20;99.90;;;;;;5033419;28;21014;-69
2021/08/02 02:29:02;;;;;;;5.43;3.13;;;15.20;99.90;;;;;;5033434;28;20484;-68
2021/08/02 02:31:30;;;;;;;4.83;2.87;;;15.20;99.90;;;;;;5034016;28;20849;-68
2021/08/02 02:34:01;;;;;;;6.43;3.53;;;15.20;99.90;;;;;;5033555;28;20449;-68
2021/08/02 02:36:29;;;;;;;4.80;3.40;;;15.30;99.90;;;;;;5033683;28;20532;-69
2021/08/02 02:38:57;;;;;;;5.03;3.67;;;15.30;99.90;;;;;;5033167;28;20467;-68
2021/08/02 02:41:24;;;;;;;4.20;3.50;;;15.30;99.90;;;;;;5033374;28;20463;-68
2021/08/02 02:43:54;;;;;;;5.10;3.20;;;15.30;99.90;;;;;;5033291;28;20455;-69
2021/08/02 02:46:22;;;;;;;3.80;3.17;;;15.30;99.90;;;;;;5033760;28;20475;-69
2021/08/02 02:48:50;;;;;;;5.07;3.33;;;15.40;99.90;;;;;;5032939;28;20498;-69
2021/08/02 02:51:18;;;;;;;5.50;3.47;;;15.40;99.90;;;;;;5033353;28;20531;-69
2021/08/02 02:53:47;;;;;;;4.37;3.10;;;15.30;99.90;;;;;;5033166;28;20460;-69
2021/08/02 02:56:16;;;;;;;6.20;3.83;;;15.30;99.90;;;;;;5033094;28;20829;-69
2021/08/02 02:58:44;;;;;;;6.83;3.83;;;15.20;99.90;;;;;;5033439;28;20468;-69
2021/08/02 03:01:15;;;;;;;5.43;3.33;;;15.30;99.90;;;;;;5032805;28;20463;-68
2021/08/02 03:03:51;;;;;;;8.10;4.40;;;15.30;99.90;;;;;;5033260;28;20445;-69
2021/08/02 03:06:19;;;;;;;5.83;3.97;;;15.20;99.90;;;;;;5033937;28;20570;-69
2021/08/02 03:08:47;;;;;;;5.23;2.97;;;15.10;99.90;;;;;;5035025;28;20489;-69
2021/08/02 03:11:18;;;;;;;7.90;4.20;;;14.90;99.90;;;;;;5034586;28;20528;-68
2021/08/02 03:13:45;;;;;;;5.70;3.60;;;14.90;99.90;;;;;;5033484;28;20539;-69
2021/08/02 03:16:14;;;;;;;4.50;3.43;;;14.90;99.90;;;;;;5032828;28;20539;-69
2021/08/02 03:18:41;;;;;;;4.70;4.00;;;14.80;99.90;;;;;;5032906;28;20469;-68
2021/08/02 03:21:08;;;;;;;5.97;3.90;;;14.70;99.90;;;;;;5032650;28;20536;-67
2021/08/02 03:23:38;;;;;;;6.73;3.83;;;14.60;99.90;;;;;;5033199;28;20571;-68
2021/08/02 03:26:12;;;;;;;5.03;4.33;;;14.60;99.90;;;;;;5032670;28;20514;-68
2021/08/02 03:28:44;;;;;;;6.33;4.00;;;14.50;99.90;;;;;;5032922;28;20485;-69
2021/08/02 03:31:18;;;;;;;5.10;4.10;;;14.50;99.90;;;;;;5032137;28;20480;-68
2021/08/02 03:33:46;;;;;;;5.80;4.17;;;14.50;99.90;;;;;;5032510;28;20452;-69
2021/08/02 03:36:15;;;;;;;4.60;3.77;;;14.40;99.90;;;;;;5032994;28;20457;-69
2021/08/02 03:38:47;;;;;;;7.00;4.20;;;14.40;99.90;;;;;;5033034;28;20465;-69
2021/08/02 03:41:15;;;;;;;5.57;4.40;;;14.40;99.90;;;;;;5032411;28;20540;-68
2021/08/02 03:43:42;;;;;;;6.70;4.20;;;14.50;99.90;;;;;;5032447;28;20444;-68
2021/08/02 03:46:11;;;;;;;4.43;3.87;;;14.50;99.90;;;;;;5032284;28;20448;-69
2021/08/02 03:48:40;;;;;;;6.33;4.40;;;14.60;99.90;;;;;;5032263;28;20485;-68
2021/08/02 03:51:07;;;;;;;7.13;4.03;;;14.60;99.90;;;;;;5031795;28;21021;-68
2021/08/02 03:53:42;;;;;;;6.10;4.90;;;14.60;99.90;;;;;;5032716;28;20964;-68
2021/08/02 03:56:10;;;;;;;4.00;3.60;;;14.50;99.90;;;;;;5031951;28;20463;-68
2021/08/02 03:58:37;;;;;;;5.83;3.90;;;14.50;99.90;;;;;;5031787;28;20471;-68
2021/08/02 04:01:05;;;;;;;6.57;4.10;;;14.50;99.90;;;;;;5031809;28;20453;-68
2021/08/02 04:03:32;;;;;;;5.83;4.03;;;14.50;99.90;;;;;;5031990;28;20832;-68
2021/08/02 04:06:01;;;;;;;6.00;3.60;;;14.60;99.90;;;;;;5031584;28;20448;-68
2021/08/02 04:08:28;;;;;;;6.47;4.53;;;14.60;99.90;;;;;;5031460;28;20520;-69
2021/08/02 04:10:55;;;;;;;5.33;4.10;;;14.70;99.90;;;;;;5031320;28;20445;-68
2021/08/02 04:13:22;;;;;;;7.27;4.70;;;14.70;99.90;;;;;;5031768;28;20543;-69
2021/08/02 04:15:49;;;;;;;6.33;4.30;;;14.80;99.90;;;;;;5031693;28;20973;-68
2021/08/02 04:18:16;;;;;;;5.63;4.30;;;14.80;99.90;;;;;;5032045;28;21012;-67
2021/08/02 04:20:43;;;;;;;5.20;4.70;;;14.90;99.90;;;;;;5034489;28;20922;-68
2021/08/02 04:23:12;;;;;;;5.00;3.77;;;14.90;99.90;;;;;;5038061;28;20524;-69
2021/08/02 04:25:39;;;;;;;5.40;4.00;;;14.90;99.90;;;;;;5041346;28;20520;-69
2021/08/02 04:28:06;;;;;;;5.90;3.90;;;14.90;99.90;;;;;;5031654;28;20508;-67
2021/08/02 04:30:33;;;;;;;7.17;4.77;;;15.00;99.90;;;;;;5031282;28;20487;-69
2021/08/02 04:33:00;;;;;;;5.63;3.80;;;15.00;99.90;;;;;;5031525;28;20453;-68
2021/08/02 04:35:27;;;;;;;7.27;3.93;;;15.00;99.90;;;;;;5031689;28;20447;-68
2021/08/02 04:37:54;;;;;;;6.43;4.50;;;15.20;99.90;;;;;;5031360;28;20437;-69
2021/08/02 04:40:22;;;;;;;7.43;4.70;;;15.20;99.90;;;;;;5030894;28;20449;-68
2021/08/02 04:42:49;;;;;;;7.43;3.60;;;15.20;99.90;;;;;;5031037;28;20444;-69
2021/08/02 04:45:16;;;;;;;8.60;3.73;;;15.30;99.90;;;;;;5031348;28;20473;-68
2021/08/02 04:47:43;;;;;;;6.27;3.80;;;15.40;99.90;;;;;;5030881;28;20970;-69
2021/08/02 04:50:11;;;;;;;5.50;4.07;;;15.50;99.90;;;;;;5030637;28;20635;-69
2021/08/02 04:52:37;;;;;;;5.93;3.80;;;15.60;99.90;;;;;;5031173;28;20553;-68
2021/08/02 04:55:05;;;;;;;8.37;4.00;;;15.60;99.90;;;;;;5030743;28;20544;-68
2021/08/02 04:57:33;;;;;;;4.03;3.40;;;15.70;99.90;;;;;;5031256;28;21085;-69
2021/08/02 05:00:00;;;;;;;5.27;3.63;;;15.70;99.90;;;;;;5030754;28;20958;-69
2021/08/02 05:02:27;;;;;;;5.77;3.73;;;15.80;99.90;;;;;;5031025;28;20524;-68
2021/08/02 05:04:54;;;;;;;5.87;4.07;;;15.90;99.90;;;;;;5031074;28;20444;-69
2021/08/02 05:07:21;;;;;;;8.00;3.70;;;16.00;99.90;;;;;;5030494;28;20493;-69
2021/08/02 05:09:48;;;;;;;5.50;3.77;;;16.00;99.90;;;;;;5030529;28;20516;-68
2021/08/02 05:12:15;;;;;;;6.17;4.40;;;16.10;99.90;;;;;;5030717;28;20456;-68
2021/08/02 05:14:43;;;;;;;5.50;4.03;;;16.20;99.90;;;;;;5031224;28;20434;-69
2021/08/02 05:17:10;;;;;;;5.03;4.27;;;16.30;99.90;;;;;;5030669;28;20951;-69
2021/08/02 05:19:37;;;;;;;10.50;3.97;;;16.30;99.90;;;;;;5030411;28;20535;-69
2021/08/02 05:22:05;;;;;;;5.50;3.57;;;16.40;99.90;;;;;;5030926;28;20532;-69
2021/08/02 05:24:33;;;;;;;5.33;3.77;;;16.40;99.90;;;;;;5031051;28;20455;-69
2021/08/02 05:27:01;;;;;;;4.33;3.67;;;16.40;99.90;;;;;;5030725;28;20560;-69
2021/08/02 05:29:28;;;;;;;5.80;3.73;;;16.50;99.90;;;;;;5030265;28;20576;-69
2021/08/02 05:31:56;;;;;;;7.90;3.60;;;16.50;99.90;;;;;;5030918;28;20970;-69
2021/08/02 05:34:23;;;;;;;5.73;3.93;;;16.50;99.90;;;;;;5030235;28;20459;-70
2021/08/02 05:36:50;;;;;;;4.67;3.60;;;16.50;99.90;;;;;;5030354;28;20452;-68
2021/08/02 05:39:17;;;;;;;5.60;4.20;;;16.50;99.90;;;;;;5029963;28;20514;-69
2021/08/02 05:41:44;;;;;;;5.10;3.30;;;16.50;99.90;;;;;;5030342;28;20521;-69
2021/08/02 05:44:10;;;;;;;5.67;3.80;;;16.50;99.90;;;;;;5030026;28;20457;-69
2021/08/02 05:46:37;;;;;;;6.73;4.07;;;16.50;99.90;;;;;;5030265;28;20445;-69
2021/08/02 05:49:06;;;;;;;6.57;4.00;;;16.50;99.90;;;;;;5029746;28;20567;-69
2021/08/02 05:51:32;;;;;;;9.30;3.93;;;16.60;99.90;;;;;;5030052;28;20530;-69
2021/08/02 05:53:59;;;;;;;7.37;3.93;;;16.60;99.90;;;;;;5029592;28;20841;-71
2021/08/02 05:56:26;;;;;;;5.20;4.00;;;16.50;99.90;;;;;;5030635;28;20485;-69
2021/08/02 05:58:53;;;;;;;5.70;3.80;;;16.60;99.90;;;;;;5033294;28;20923;-71
2021/08/02 06:01:20;;;;;;;8.23;3.60;;;16.60;99.90;;;;;;5026058;28;20897;-71
2021/08/02 06:03:47;;;;;;;10.03;3.50;;;16.60;99.90;;;;;;5031164;28;20457;-70
2021/08/02 06:06:16;;;;;;;6.87;3.63;;;16.70;99.90;;;;;;5038056;28;20444;-69
2021/08/02 06:08:43;;;;;;;6.43;4.10;;;16.80;99.90;;;;;;5035958;28;20489;-69
2021/08/02 06:11:10;;;;;;;6.83;3.73;;;16.80;99.90;;;;;;5041463;28;20532;-69
2021/08/02 06:13:37;;;;;;;5.97;3.90;;;17.00;99.90;;;;;;5031581;28;20532;-67
2021/08/02 06:16:04;;;;;;;6.00;3.07;;;17.00;99.90;;;;;;5029533;28;20457;-68
2021/08/02 06:18:31;;;;;;;4.83;3.43;;;17.10;99.90;;;;;;5036284;28;20464;-68
2021/08/02 06:20:58;;;;;;;7.60;3.40;;;17.10;99.90;;;;;;5038402;28;20451;-69
2021/08/02 06:23:26;;;;;;;5.90;3.30;;;17.20;99.90;;;;;;5035998;28;20441;-69
2021/08/02 06:25:53;;;;;;;5.00;3.20;;;17.30;99.90;;;;;;5029497;28;20965;-70
2021/08/02 06:28:20;;;;;;;4.57;2.80;;;17.40;99.90;;;;;;5029246;28;20500;-71
2021/08/02 06:30:47;;;;;;;5.70;3.13;;;17.50;99.90;;;;;;5029047;28;20483;-70
2021/08/02 06:33:14;;;;;;;6.13;2.63;;;17.60;99.90;;;;;;5029569;28;20451;-71
2021/08/02 06:35:41;;;;;;;4.20;3.10;;;17.70;99.90;;;;;;5029754;28;20539;-71
2021/08/02 06:38:07;;;;;;;5.10;2.90;;;17.70;99.90;;;;;;5035129;28;20527;-70
2021/08/02 06:40:36;;;;;;;6.40;2.90;;;17.80;99.90;;;;;;5036041;28;20867;-69
2021/08/02 06:43:02;;;;;;;5.70;3.07;;;17.80;99.90;;;;;;5031167;28;20934;-71
2021/08/02 06:45:29;;;;;;;5.13;3.47;;;17.80;99.90;;;;;;5041319;28;20462;-70
2021/08/02 06:47:56;;;;;;;3.90;2.60;;;17.90;99.90;;;;;;5041909;28;20488;-69
2021/08/02 06:50:24;;;;;;;7.00;3.23;;;18.10;99.90;;;;;;5037276;28;20485;-69
2021/08/02 06:52:52;;;;;;;4.40;2.57;;;18.30;99.90;;;;;;5029031;28;20449;-70
2021/08/02 06:55:19;;;;;;;4.10;2.67;;;18.40;99.90;;;;;;5032456;28;20441;-68
2021/08/02 06:57:47;;;;;;;5.10;2.87;;;18.60;99.90;;;;;;5031760;28;20449;-70
2021/08/02 07:00:15;;;;;;;3.97;2.93;;;18.70;99.90;;;;;;5035316;28;20554;-70
2021/08/02 07:02:42;;;;;;;4.93;3.40;;;18.80;99.90;;;;;;5033740;28;20483;-69
2021/08/02 07:05:10;;;;;;;5.40;2.60;;;19.00;99.90;;;;;;5036799;28;20960;-69
2021/08/02 07:07:37;;;;;;;7.80;3.20;;;19.20;99.90;;;;;;5033018;28;20537;-70
2021/08/02 07:10:05;;;;;;;7.73;2.30;;;19.30;99.90;;;;;;5040536;28;20492;-70
2021/08/02 07:12:32;;;;;;;5.00;2.80;;;19.50;99.90;;;;;;5040305;28;20456;-70
2021/08/02 07:15:00;;;;;;;7.47;2.93;;;19.60;99.90;;;;;;5037874;28;20464;-70
2021/08/02 07:17:27;;;;;;;4.50;2.80;;;19.80;99.90;;;;;;5035747;28;20965;-69
2021/08/02 07:19:54;;;;;;;6.93;2.67;;;20.00;99.90;;;;;;5042050;28;20486;-69
2021/08/02 07:22:21;;;;;;;6.40;2.50;;;20.20;99.90;;;;;;5036226;28;20446;-69
2021/08/02 07:24:47;;;;;;;6.70;2.50;;;20.40;99.90;;;;;;5040238;28;20551;-69
2021/08/02 07:27:14;;;;;;;3.70;2.80;;;20.50;99.90;;;;;;5043200;28;20832;-69
2021/08/02 07:29:41;;;;;;;5.37;2.83;;;20.60;99.90;;;;;;5035424;28;20611;-69
2021/08/02 07:32:10;;;;;;;6.40;2.60;;;20.80;99.90;;;;;;5039135;28;20450;-70
2021/08/02 07:34:37;;;;;;;8.37;2.73;;;21.00;99.90;;;;;;5039025;28;20527;-70
2021/08/02 07:37:04;;;;;;;5.20;2.57;;;21.20;99.90;;;;;;5037050;28;20441;-69
2021/08/02 07:39:31;;;;;;;6.00;2.67;;;21.30;99.90;;;;;;5026168;28;20464;-69
2021/08/02 07:41:58;;;;;;;4.40;2.40;;;21.40;99.90;;;;;;5041205;28;20432;-68
2021/08/02 07:44:25;;;;;;;6.17;3.00;;;21.40;99.90;;;;;;5033068;28;20453;-70
2021/08/02 07:46:52;;;;;;;4.80;2.30;;;21.30;99.90;;;;;;5040758;28;20440;-69
2021/08/02 07:49:21;;;;;;;3.73;2.60;;;21.30;99.90;;;;;;5033149;28;20512;-69
2021/08/02 07:51:47;;;;;;;5.30;2.77;;;21.50;99.90;;;;;;5031172;28;20460;-69
2021/08/02 07:54:14;;;;;;;4.00;2.50;;;21.40;99.90;;;;;;5031911;28;20455;-68
2021/08/02 07:56:41;;;;;;;5.63;3.17;;;21.50;99.90;;;;;;5030485;28;20901;-69
2021/08/02 07:59:08;;;;;;;4.37;2.40;;;21.50;99.90;;;;;;5030898;28;20461;-69
2021/08/02 08:01:35;;;;;;;3.90;2.40;;;21.60;99.90;;;;;;5031652;28;20453;-69
2021/08/02 08:04:02;;;;;;;4.40;2.17;;;21.80;99.90;;;;;;5031534;28;20444;-68
2021/08/02 08:06:30;;;;;;;4.17;2.13;;;22.00;99.90;;;;;;5031848;28;20540;-69
2021/08/02 08:08:57;;;;;;;3.87;1.93;;;22.20;99.90;;;;;;5031104;28;20544;-69
2021/08/02 08:11:24;;;;;;;3.20;1.97;;;22.40;99.90;;;;;;5031795;28;20544;-69
2021/08/02 08:13:51;;;;;;;3.30;1.90;;;22.60;99.90;;;;;;5031488;28;20561;-69
2021/08/02 08:16:18;;;;;;;4.03;2.07;;;22.90;99.90;;;;;;5030814;28;20536;-69
2021/08/02 08:18:45;;;;;;;4.13;1.70;;;23.30;99.90;;;;;;5031111;28;20471;-68
2021/08/02 08:21:12;;;;;;;2.93;2.00;;;22.90;99.90;;;;;;5031205;28;20569;-69
2021/08/02 08:23:40;;;;;;;4.40;2.10;;;22.80;99.90;;;;;;5031328;28;20510;-70
2021/08/02 08:26:07;;;;;;;3.47;1.90;;;23.00;99.90;;;;;;5031279;28;20869;-68
2021/08/02 08:28:34;;;;;;;4.70;1.67;;;23.30;99.90;;;;;;5031226;28;20491;-69
2021/08/02 08:31:01;;;;;;;3.17;1.73;;;23.60;99.90;;;;;;5030941;28;20491;-69
2021/08/02 08:33:27;;;;;;;3.33;1.50;;;23.70;99.90;;;;;;5031328;28;20463;-70
2021/08/02 08:35:56;;;;;;;5.40;1.90;;;23.90;99.90;;;;;;5031218;28;20451;-69
2021/08/02 08:38:24;;;;;;;3.67;2.10;;;24.00;99.90;;;;;;5030972;28;20507;-69
2021/08/02 08:40:53;;;;;;;3.37;1.93;;;24.20;99.90;;;;;;5030617;28;21038;-69
2021/08/02 08:43:21;;;;;;;3.80;1.80;;;24.50;99.90;;;;;;5031022;28;20455;-70
2021/08/02 08:45:48;;;;;;;3.70;1.93;;;24.90;99.90;;;;;;5030761;28;20491;-69
2021/08/02 08:48:15;;;;;;;4.63;2.03;;;25.00;99.90;;;;;;5030916;28;20555;-69
2021/08/02 08:50:43;;;;;;;3.53;1.80;;;24.70;99.90;;;;;;5030652;28;20579;-70
2021/08/02 08:53:11;;;;;;;4.60;1.90;;;24.30;99.90;;;;;;5030949;28;20453;-69
2021/08/02 08:55:42;;;;;;;3.53;2.00;;;24.20;99.90;;;;;;5030747;28;20452;-70
2021/08/02 08:58:12;;;;;;;7.00;1.90;;;24.20;99.90;;;;;;5030466;28;20452;-69
2021/08/02 09:00:40;;;;;;;4.57;2.17;;;24.20;99.90;;;;;;5030569;28;20473;-69
2021/08/02 09:03:11;;;;;;;4.20;2.23;;;23.80;99.90;;;;;;5030966;28;20473;-70
2021/08/02 09:05:39;;;;;;;5.00;2.17;;;23.80;99.90;;;;;;5030899;28;20527;-68
2021/08/02 09:08:07;;;;;;;4.07;2.30;;;23.60;99.90;;;;;;5030792;28;20552;-69
2021/08/02 09:10:35;;;;;;;3.70;2.47;;;23.50;99.90;;;;;;5030516;28;20564;-70
2021/08/02 09:13:04;;;;;;;3.07;1.70;;;23.30;99.90;;;;;;5030880;28;20548;-70
2021/08/02 09:15:38;;;;;;;4.53;2.47;;;23.20;99.90;;;;;;5030868;28;20456;-69
2021/08/02 09:18:07;;;;;;;3.37;2.00;;;23.20;99.90;;;;;;5030595;28;20527;-69
2021/08/02 09:20:34;;;;;;;4.37;2.13;;;22.90;99.90;;;;;;5030438;28;20934;-69
2021/08/02 09:23:12;;;;;;;3.07;1.83;;;22.30;99.90;;;;;;5030565;28;20457;-69
2021/08/02 09:25:50;;;;;;;4.10;2.10;;;22.00;99.90;;;;;;5030853;28;20547;-69
2021/08/02 09:28:19;;;;;;;4.90;2.33;;;21.70;99.90;;;;;;5029765;28;20475;-69
2021/08/02 09:30:59;;;;;;;4.40;2.00;;;21.60;99.90;;;;;;5030217;28;20487;-70
2021/08/02 09:33:27;;;;;;;4.50;1.83;;;21.80;99.90;;;;;;5030688;28;20453;-70
2021/08/02 09:35:54;;;;;;;3.83;1.97;;;22.00;99.90;;;;;;5031081;28;20459;-70
2021/08/02 09:38:24;;;;;;;2.90;2.07;;;22.20;99.90;;;;;;5031718;28;20995;-69
2021/08/02 09:40:52;;;;;;;3.40;2.23;;;22.30;99.90;;;;;;5037968;28;20451;-69
2021/08/02 09:43:21;;;;;;;3.77;2.03;;;22.70;99.90;;;;;;5034481;28;20441;-69
2021/08/02 09:45:50;;;;;;;4.13;2.40;;;23.30;99.90;;;;;;5037466;28;20523;-69
2021/08/02 09:48:19;;;;;;;3.83;1.80;;;24.00;99.90;;;;;;5031870;28;20542;-70
2021/08/02 09:50:47;;;;;;;4.63;1.70;;;24.70;99.90;;;;;;5029605;28;20580;-69
2021/08/02 09:53:16;;;;;;;5.27;1.80;;;25.80;99.90;;;;;;5030034;28;20453;-69
2021/08/02 09:55:44;;;;;;;3.13;1.67;;;26.50;99.90;;;;;;5029679;28;20453;-69
2021/08/02 09:58:14;;;;;;;3.80;1.60;;;26.80;99.90;;;;;;5029726;28;20841;-70
2021/08/02 10:00:42;;;;;;;2.80;1.80;;;26.10;96.20;;;;;;5029304;28;20943;-70
2021/08/02 10:03:09;;;;;;;3.17;2.07;;;25.20;97.60;;;;;;5029842;28;20543;-69
2021/08/02 10:05:39;;;;;;;3.13;1.87;;;24.40;99.90;;;;;;5029668;28;20455;-70
2021/08/02 10:08:07;;;;;;;3.00;1.77;;;23.90;99.90;;;;;;5029694;28;20459;-69
2021/08/02 10:10:37;;;;;;;3.00;1.90;;;23.20;99.90;;;;;;5029254;28;20572;-70
2021/08/02 10:13:04;;;;;;;6.20;2.00;;;22.40;99.90;;;;;;5029536;28;20449;-69
2021/08/02 10:15:32;;;;;;;3.43;1.40;;;21.10;99.90;;;;;;5029564;28;20475;-69
2021/08/02 10:18:02;;;;;;;6.07;2.30;;;20.20;99.90;;;;;;5029687;28;20455;-69
2021/08/02 10:20:31;;;;;;;3.07;1.60;;;19.70;99.90;;;;;;5029450;28;20443;-69
2021/08/02 10:23:02;;;;;;;3.00;1.97;;;19.60;99.90;;;;;;5029597;28;20460;-69
2021/08/02 10:25:35;;;;;;;2.47;1.50;;;19.50;99.90;;;;;;5029337;28;20563;-70
2021/08/02 10:28:13;;;;;;;4.57;2.07;;;19.20;99.90;;;;;;5029242;28;20448;-69
2021/08/02 10:30:42;;;;;;;3.53;1.67;;;18.50;99.90;;;;;;5028932;28;20484;-69
2021/08/02 10:33:10;;;;;;;4.27;2.20;;;17.90;99.90;;;;;;5029305;28;20455;-69
2021/08/02 10:35:42;;;;;;;4.33;2.30;;;17.60;99.90;;;;;;5029306;28;20445;-68
2021/08/02 10:38:13;;;;;;;4.70;2.73;;;17.20;99.90;;;;;;5029139;28;20530;-69
2021/08/02 10:40:57;;;;;;;4.70;2.60;;;17.00;99.90;;;;;;5031161;28;20453;-69
2021/08/02 10:43:29;;;;;;;4.40;2.10;;;17.00;99.90;;;;;;5033046;28;20858;-69
2021/08/02 10:46:14;;;;;;;3.37;1.70;;;17.50;99.90;;;;;;5033073;28;20485;-69
2021/08/02 10:48:41;;;;;;;2.73;1.67;;;18.50;99.90;;;;;;5032921;28;20468;-69
2021/08/02 10:51:21;;;;;;;2.83;1.33;;;19.80;99.90;;;;;;5032591;28;20516;-70
2021/08/02 10:53:59;;;;;;;2.43;1.10;;;20.40;99.90;;;;;;5033055;28;20458;-70
2021/08/02 10:56:27;;;;;;;2.70;1.67;;;21.00;99.90;;;;;;5032817;28;21186;-70
2021/08/02 10:58:56;;;;;;;3.17;1.63;;;21.60;99.90;;;;;;5032581;28;20471;-69
2021/08/02 11:01:26;;;;;;;2.60;1.50;;;22.70;99.90;;;;;;5032819;28;20860;-69
2021/08/02 11:03:53;;;;;;;3.30;1.63;;;23.30;99.90;;;;;;5032733;28;20455;-69
2021/08/02 11:06:20;;;;;;;3.87;1.80;;;23.10;99.90;;;;;;5032696;28;20463;-69
2021/08/02 11:08:51;;;;;;;4.50;1.93;;;22.70;99.90;;;;;;5032606;28;20556;-69
2021/08/02 11:11:24;;;;;;;3.20;1.80;;;22.10;99.90;;;;;;5032171;28;20522;-69
2021/08/02 11:13:53;;;;;;;2.83;2.10;;;21.50;99.90;;;;;;5032887;28;20440;-70
2021/08/02 11:16:20;;;;;;;4.80;1.77;;;21.20;99.90;;;;;;5032797;28;20508;-69
2021/08/02 11:18:49;;;;;;;2.50;1.33;;;21.10;99.90;;;;;;5032608;28;20468;-70
2021/08/02 11:21:24;;;;;;;3.33;1.67;;;21.00;99.90;;;;;;5032087;28;20448;-69
2021/08/02 11:23:52;;;;;;;3.40;1.90;;;20.80;99.90;;;;;;5032470;28;21114;-69
2021/08/02 11:26:20;;;;;;;4.27;2.03;;;20.70;99.90;;;;;;5032177;28;20863;-69
2021/08/02 11:28:50;;;;;;;4.00;1.80;;;20.50;99.90;;;;;;5032186;28;20468;-69
2021/08/02 11:31:18;;;;;;;4.67;2.43;;;20.30;99.90;;;;;;5031995;28;20487;-70
2021/08/02 11:33:45;;;;;;;3.20;2.20;;;20.00;99.90;;;;;;5032289;28;20544;-69
2021/08/02 11:36:20;;;;;;;4.70;2.70;;;19.90;99.90;;;;;;5032413;28;20539;-70
2021/08/02 11:38:48;;;;;;;3.40;2.03;;;19.80;99.90;;;;;;5032325;28;20511;-70
2021/08/02 11:41:28;;;;;;;3.87;2.53;;;19.90;99.90;;;;;;5032288;28;20536;-70
2021/08/02 11:43:58;;;;;;;3.20;2.13;;;20.20;99.90;;;;;;5032602;28;20461;-69
2021/08/02 11:46:25;;;;;;;3.07;1.90;;;20.60;99.90;;;;;;5032189;28;20453;-70
2021/08/02 11:48:53;;;;;;;2.63;1.80;;;21.20;99.90;;;;;;5031831;28;20469;-70
2021/08/02 11:51:23;;;;;;;3.50;1.73;;;21.70;99.90;;;;;;5030673;28;21063;-70
2021/08/02 11:53:50;;;;;;;3.57;1.70;;;22.00;99.90;;;;;;5032463;28;20515;-70
2021/08/02 11:56:17;;;;;;;3.00;1.53;;;22.00;99.90;;;;;;5031957;28;20536;-70
2021/08/02 11:58:45;;;;;;;3.23;1.73;;;22.30;99.90;;;;;;5031880;28;20567;-69
2021/08/02 12:01:14;;;;;;;3.37;1.70;;;22.40;99.90;;;;;;5031516;28;20956;-70
2021/08/02 12:03:45;;;;;;;2.93;1.50;;;22.30;99.90;;;;;;5031726;28;20453;-69
2021/08/02 12:06:12;;;;;;;2.90;1.70;;;21.90;99.90;;;;;;5031871;28;20484;-70
2021/08/02 12:08:50;;;;;;;4.50;2.63;;;21.50;99.90;;;;;;5031500;28;20847;-70
2021/08/02 12:11:17;;;;;;;3.37;1.80;;;21.00;99.90;;;;;;5031293;28;20480;-70
2021/08/02 12:13:45;;;;;;;4.70;1.90;;;21.00;99.90;;;;;;5031658;28;20452;-70
2021/08/02 12:16:25;;;;;;;2.90;1.70;;;21.90;99.90;;;;;;5031273;28;20519;-70
2021/08/02 12:19:03;;;;;;;2.70;1.80;;;22.40;99.90;;;;;;5031550;28;20460;-69
2021/08/02 12:21:31;;;;;;;2.80;1.70;;;22.60;99.90;;;;;;5031460;28;20441;-70
2021/08/02 12:24:06;;;;;;;2.83;2.00;;;22.50;99.90;;;;;;5031448;28;20460;-70
2021/08/02 12:26:33;;;;;;;3.27;1.97;;;22.50;99.90;;;;;;5031207;28;20456;-70
2021/08/02 12:29:00;;;;;;;3.40;1.70;;;21.80;99.90;;;;;;5030713;28;20985;-69
2021/08/02 12:31:28;;;;;;;2.87;1.53;;;21.60;99.90;;;;;;5031013;28;20572;-69
2021/08/02 12:33:55;;;;;;;3.40;2.00;;;21.60;99.90;;;;;;5031197;28;20440;-69
2021/08/02 12:36:23;;;;;;;2.80;1.53;;;21.70;99.90;;;;;;5031287;28;20460;-69
2021/08/02 12:38:51;;;;;;;3.67;1.53;;;21.90;99.90;;;;;;5030908;28;20469;-70
2021/08/02 12:41:19;;;;;;;2.70;1.80;;;21.90;99.90;;;;;;5030112;28;20436;-70
2021/08/02 12:43:47;;;;;;;2.90;1.70;;;21.90;99.90;;;;;;5030910;28;20440;-69
2021/08/02 12:46:14;;;;;;;2.50;1.33;;;22.20;99.90;;;;;;5030912;28;20484;-69
2021/08/02 12:48:42;;;;;;;5.60;1.97;;;22.40;99.90;;;;;;5030685;28;20551;-70
2021/08/02 12:51:10;;;;;;;2.80;1.43;;;23.60;99.90;;;;;;5030250;28;20567;-70
2021/08/02 12:53:36;;;;;;;4.00;1.83;;;25.40;99.90;;;;;;5030514;28;20535;-70
2021/08/02 12:56:03;;;;;;;2.37;1.30;;;26.80;99.90;;;;;;5030714;28;20527;-70